Aeroporto :
LOGIN :

Iscrizione | Disclaimer

   EN    FR    IT 

 










Sommario :    VFR   VFR Marginale   IFR   IFR Intensivo   IFR Molto Intensivo
Visibilità : 
Base nubi : 
>= 8 km
>= 3000ft
5 / 8 km
1000 / 3000 ft
1500m / 5 km
500 / 1000 ft
800 / 1500m
200 / 500 ft
< 800m
< 200 ft
Simboli :   Temporali  Nebbia  Neve Forte  Precipitazioni Forti  Vento > 20 kt
SIGMETs :   Varie  Temporali  Ghiacco  Turbolenza  Onda orograficha  Ceneri Vulcaniche







- Altitudine del aeroporto : 1768 ft


LEHC - Huesca Pirineos

ULTIMO METAR :
  • 222100Z AUTO 33002KT 9999 NCD 12/08 Q1018

METARs OBSOLETI :
  • 222030Z AUTO 00000KT 9999 NCD 11/08 Q1018
  • 222000Z AUTO 00000KT 9999 NCD 14/08 Q1017
  • 221930Z AUTO 16002KT 8000 NCD 20/07 Q1017
  • 221900Z AUTO 35001KT 9999 NCD 21/08 Q1017
  • 221830Z AUTO VRB01KT 9999 NCD 23/08 Q1017

TAF TAF LEHC
Valido dal 22 a 15 ore il 23 a 15 ore UTC


221400Z 2215/2315 VRB04KT 9999 FEW040 TX27/2314Z TN12/2306Z
BECMG 2221/2223 09009KT
BECMG 2306/2308 20008KT
BECMG 2310/2312 25010KT
Nessun NOTAM noto per questo aeroporto.



MetMap, La meteo Aeronautica in un colpo d'occhio ! - Copyright ORBIFLY Dicembre 2007 - Disclaimer

ORBIFLY MET'MAP TEAM :

Programmazione e sviluppo : Alexandra Zaïnal
Concezione e sviluppo : Baudouin d'Aumeries
Co-Programmazione e sviluppo : Marc-Olivier Méhu
Supporto tecnico e logistico : Manuel Goepfert
Aiuto per la traduzione : Arnaldo La Scala

Contatto : metmap@orbifly.com




FONTI E CREDITI :

   NOAA